createdAt,value
2018-05-08T00:00:51.880Z,0.00
2018-05-08T00:01:51.907Z,0.00
2018-05-08T00:02:51.939Z,0.00
2018-05-08T00:04:51.974Z,0.00
2018-05-08T00:05:51.987Z,0.00
2018-05-08T00:06:52.014Z,0.00
2018-05-08T00:07:52.037Z,0.00
2018-05-08T00:08:52.119Z,0.00
2018-05-08T00:09:52.077Z,0.00
2018-05-08T00:10:52.092Z,0.00
2018-05-08T00:11:52.118Z,0.00
2018-05-08T00:12:52.144Z,0.00
2018-05-08T00:13:52.161Z,0.00
2018-05-08T00:14:52.183Z,0.00
2018-05-08T00:15:52.194Z,0.00
2018-05-08T00:16:52.221Z,0.00
2018-05-08T00:17:52.247Z,0.00
2018-05-08T00:18:52.260Z,0.00
2018-05-08T00:19:52.299Z,0.00
2018-05-08T00:20:52.300Z,0.00
2018-05-08T00:21:52.336Z,0.00
2018-05-08T00:22:52.339Z,0.00
2018-05-08T00:23:52.368Z,0.00
2018-05-08T00:24:52.406Z,0.00
2018-05-08T00:25:52.408Z,0.00
2018-05-08T00:26:52.433Z,0.00
2018-05-08T00:27:52.444Z,0.00
2018-05-08T00:28:52.470Z,0.00
2018-05-08T00:29:52.498Z,0.00
2018-05-08T00:30:52.510Z,0.00
2018-05-08T00:31:52.538Z,0.00
2018-05-08T00:32:52.564Z,0.00
2018-05-08T00:33:52.577Z,0.00
2018-05-08T00:34:52.591Z,0.00
2018-05-08T00:35:52.617Z,0.00
2018-05-08T00:36:52.643Z,0.00
2018-05-08T00:38:52.694Z,0.00
2018-05-08T00:39:52.695Z,0.00
2018-05-08T00:40:52.720Z,0.00
2018-05-08T00:41:52.736Z,0.00
2018-05-08T00:42:52.759Z,0.00
2018-05-08T00:43:52.785Z,0.00
2018-05-08T00:44:52.801Z,0.00
2018-05-08T00:45:52.827Z,0.00
2018-05-08T00:46:52.844Z,0.00
2018-05-08T00:47:52.866Z,0.00
2018-05-08T00:48:52.878Z,0.00
2018-05-08T00:49:52.903Z,0.00
2018-05-08T00:50:52.917Z,0.00
2018-05-08T00:52:52.981Z,0.00
2018-05-08T00:53:52.982Z,0.00
2018-05-08T00:54:53.008Z,0.00
2018-05-08T00:55:53.021Z,0.00
2018-05-08T00:56:53.047Z,0.00
2018-05-08T00:57:53.075Z,0.00
2018-05-08T00:58:53.089Z,0.00
2018-05-08T00:59:53.115Z,0.00
2018-05-08T01:01:53.154Z,0.00
2018-05-08T01:02:53.166Z,0.00
2018-05-08T01:03:53.192Z,0.00
2018-05-08T01:04:53.289Z,0.00
2018-05-08T01:06:53.246Z,0.00
2018-05-08T01:07:53.273Z,0.00
2018-05-08T01:08:53.299Z,0.00
2018-05-08T01:10:53.337Z,0.00
2018-05-08T01:11:53.351Z,0.00
2018-05-08T01:12:53.378Z,0.00
2018-05-08T01:13:53.390Z,0.00
2018-05-08T01:14:53.417Z,0.00
2018-05-08T01:15:53.442Z,0.00
2018-05-08T01:16:53.455Z,0.00
2018-05-08T01:17:53.480Z,0.00
2018-05-08T01:18:53.492Z,0.00
2018-05-08T01:19:53.520Z,0.00
2018-05-08T01:20:53.536Z,0.00
2018-05-08T01:21:53.562Z,0.00
2018-05-08T01:22:53.575Z,0.00
2018-05-08T01:23:53.600Z,0.00
2018-05-08T01:24:53.624Z,0.00
2018-05-08T01:25:53.641Z,0.00
2018-05-08T01:26:53.665Z,0.00
2018-05-08T01:27:53.677Z,0.00
2018-05-08T01:28:53.704Z,0.00
2018-05-08T01:29:53.716Z,0.00
2018-05-08T01:30:53.746Z,0.00
2018-05-08T01:31:53.756Z,0.00
2018-05-08T01:32:53.783Z,0.00
2018-05-08T01:33:53.809Z,0.00
2018-05-08T01:34:53.823Z,0.00
2018-05-08T01:35:53.838Z,0.00
2018-05-08T01:36:53.860Z,0.00
2018-05-08T01:37:53.886Z,0.00
2018-05-08T01:38:53.906Z,0.00
2018-05-08T01:39:53.930Z,0.00
2018-05-08T01:40:53.941Z,0.00
2018-05-08T01:41:53.967Z,0.00
2018-05-08T01:42:53.982Z,0.00
2018-05-08T01:43:54.007Z,0.00
2018-05-08T01:44:54.020Z,0.00
2018-05-08T01:45:54.046Z,0.00
2018-05-08T01:46:54.060Z,0.00
2018-05-08T01:47:54.086Z,0.00
2018-05-08T01:48:54.110Z,0.00
2018-05-08T01:49:54.123Z,0.00
2018-05-08T01:50:54.150Z,0.00
2018-05-08T01:51:54.163Z,0.00
2018-05-08T01:52:54.192Z,0.00
2018-05-08T01:53:54.203Z,0.00
2018-05-08T01:54:54.234Z,0.00
2018-05-08T01:55:54.244Z,0.00
2018-05-08T01:56:54.267Z,0.00
2018-05-08T01:57:54.284Z,0.00
2018-05-08T01:58:54.308Z,0.00
2018-05-08T01:59:54.333Z,0.00
2018-05-08T02:00:54.409Z,0.00
2018-05-08T02:01:54.373Z,0.00
2018-05-08T02:02:54.386Z,0.00
2018-05-08T02:03:54.426Z,0.00
2018-05-08T02:04:54.428Z,0.00
2018-05-08T02:05:54.454Z,0.00
2018-05-08T02:06:54.467Z,0.00
2018-05-08T02:07:54.494Z,0.00
2018-05-08T02:08:54.509Z,0.00
2018-05-08T02:09:54.530Z,0.00
2018-05-08T02:10:54.544Z,0.00
2018-05-08T02:11:54.569Z,0.00
2018-05-08T02:12:54.597Z,0.00
2018-05-08T02:13:54.612Z,0.00
2018-05-08T02:14:54.638Z,0.00
2018-05-08T02:15:54.650Z,0.00
2018-05-08T02:16:54.674Z,0.00
2018-05-08T02:17:54.688Z,0.00
2018-05-08T02:18:54.717Z,0.00
2018-05-08T02:19:54.727Z,0.00
2018-05-08T02:20:54.755Z,0.00
2018-05-08T02:21:54.771Z,0.00
2018-05-08T02:22:54.800Z,0.00
2018-05-08T02:23:54.808Z,0.00
2018-05-08T02:24:54.832Z,0.00
2018-05-08T02:25:54.945Z,0.00
2018-05-08T02:26:54.880Z,0.00
2018-05-08T02:27:54.886Z,0.00
2018-05-08T02:28:54.914Z,0.00
2018-05-08T02:29:54.940Z,0.00
2018-05-08T02:30:55.155Z,0.00
2018-05-08T02:31:54.980Z,0.00
2018-05-08T02:32:54.992Z,0.00
2018-05-08T02:33:55.020Z,0.00
2018-05-08T02:34:55.036Z,0.00
2018-05-08T02:35:55.058Z,0.00
2018-05-08T02:36:55.070Z,0.00
2018-05-08T02:38:55.113Z,0.00
2018-05-08T02:39:55.135Z,0.00
2018-05-08T02:40:55.148Z,0.00
2018-05-08T02:41:55.175Z,4.00
2018-05-08T02:42:55.190Z,4.00
2018-05-08T02:43:55.216Z,4.00
2018-05-08T02:44:55.241Z,0.00
2018-05-08T02:45:55.253Z,0.00
2018-05-08T02:46:55.278Z,4.00
2018-05-08T02:47:55.291Z,4.00
2018-05-08T02:48:55.521Z,4.00
2018-05-08T02:50:55.357Z,4.00
2018-05-08T02:51:55.375Z,8.00
2018-05-08T02:52:55.397Z,8.00
2018-05-08T02:53:55.410Z,8.00
2018-05-08T02:54:55.438Z,12.00
2018-05-08T02:55:55.453Z,12.00
2018-05-08T02:56:55.478Z,16.00
2018-05-08T02:57:55.494Z,16.00
2018-05-08T02:58:55.515Z,16.00
2018-05-08T02:59:55.541Z,24.00
2018-05-08T03:00:55.556Z,24.00
2018-05-08T03:01:55.571Z,28.00
2018-05-08T03:02:55.599Z,32.00
2018-05-08T03:03:55.611Z,36.00
2018-05-08T03:04:55.636Z,44.00
2018-05-08T03:05:55.668Z,48.00
2018-05-08T03:06:55.676Z,52.00
2018-05-08T03:07:55.701Z,60.00
2018-05-08T03:08:55.716Z,68.00
2018-05-08T03:09:55.741Z,76.00
2018-05-08T03:10:55.753Z,84.00
2018-05-08T03:11:55.779Z,96.00
2018-05-08T03:12:55.792Z,104.00
2018-05-08T03:13:55.818Z,120.00
2018-05-08T03:14:55.832Z,132.00
2018-05-08T03:15:55.858Z,148.00
2018-05-08T03:16:55.872Z,160.00
2018-05-08T03:17:55.898Z,172.00
2018-05-08T03:18:55.922Z,192.00
2018-05-08T03:19:55.948Z,208.00
2018-05-08T03:20:56.151Z,228.00
2018-05-08T03:21:55.975Z,248.00
2018-05-08T03:22:55.987Z,268.00
2018-05-08T03:23:56.016Z,288.00
2018-05-08T03:24:56.030Z,308.00
2018-05-08T03:25:56.053Z,332.00
2018-05-08T03:26:56.068Z,356.00
2018-05-08T03:27:56.094Z,384.00
2018-05-08T03:28:56.109Z,408.00
2018-05-08T03:29:56.135Z,436.00
2018-05-08T03:30:56.146Z,464.00
2018-05-08T03:31:56.171Z,488.00
2018-05-08T03:32:56.197Z,520.00
2018-05-08T03:33:56.214Z,552.00
2018-05-08T03:34:56.227Z,584.00
2018-05-08T03:35:56.252Z,612.00
2018-05-08T03:36:56.278Z,648.00
2018-05-08T03:37:56.293Z,676.00
2018-05-08T03:38:56.669Z,712.00
2018-05-08T03:39:56.332Z,744.00
2018-05-08T03:40:56.358Z,780.00
2018-05-08T03:41:56.373Z,816.00
2018-05-08T03:42:56.396Z,848.00
2018-05-08T03:43:56.408Z,884.00
2018-05-08T03:44:56.435Z,920.00
2018-05-08T03:45:56.448Z,956.00
2018-05-08T03:46:56.477Z,992.00
2018-05-08T03:48:56.514Z,1064.00
2018-05-08T03:49:56.531Z,1096.00
2018-05-08T03:50:56.556Z,1132.00
2018-05-08T03:51:56.567Z,1168.00
2018-05-08T03:52:56.591Z,1208.00
2018-05-08T03:53:56.605Z,1240.00
2018-05-08T03:54:56.632Z,1276.00
2018-05-08T03:55:56.645Z,1312.00
2018-05-08T03:56:56.675Z,1344.00
2018-05-08T03:57:56.887Z,1380.00
2018-05-08T03:58:56.710Z,1412.00
2018-05-08T03:59:56.725Z,1448.00
2018-05-08T04:00:56.751Z,1484.00
2018-05-08T04:01:56.766Z,1516.00
2018-05-08T04:02:56.792Z,1548.00
2018-05-08T04:03:56.803Z,1576.00
2018-05-08T04:04:56.828Z,1604.00
2018-05-08T04:05:56.843Z,1640.00
2018-05-08T04:06:56.869Z,1668.00
2018-05-08T04:07:56.883Z,1704.00
2018-05-08T04:08:56.922Z,1728.00
2018-05-08T04:09:57.124Z,1760.00
2018-05-08T04:10:56.956Z,1788.00
2018-05-08T04:11:56.962Z,1816.00
2018-05-08T04:12:56.988Z,1844.00
2018-05-08T04:13:57.003Z,1872.00
2018-05-08T04:14:57.114Z,1896.00
2018-05-08T04:15:57.044Z,1924.00
2018-05-08T04:16:57.067Z,1948.00
2018-05-08T04:17:57.079Z,1980.00
2018-05-08T04:18:57.105Z,2008.00
2018-05-08T04:19:57.127Z,2032.00
2018-05-08T04:20:57.148Z,2060.00
2018-05-08T04:21:57.171Z,2088.00
2018-05-08T04:22:57.186Z,2116.00
2018-05-08T04:23:57.411Z,2148.00
2018-05-08T04:24:57.222Z,2176.00
2018-05-08T04:25:57.237Z,2200.00
2018-05-08T04:26:57.263Z,2224.00
2018-05-08T04:27:57.278Z,2252.00
2018-05-08T04:28:57.304Z,2280.00
2018-05-08T04:29:57.329Z,2308.00
2018-05-08T04:30:57.344Z,2332.00
2018-05-08T04:31:57.368Z,2360.00
2018-05-08T04:32:57.380Z,2384.00
2018-05-08T04:33:57.407Z,2412.00
2018-05-08T04:34:57.423Z,2432.00
2018-05-08T04:35:57.448Z,2460.00
2018-05-08T04:36:57.463Z,2484.00
2018-05-08T04:37:57.499Z,2512.00
2018-05-08T04:38:57.504Z,2536.00
2018-05-08T04:39:57.525Z,2556.00
2018-05-08T04:40:57.538Z,2584.00
2018-05-08T04:41:57.565Z,2608.00
2018-05-08T04:42:57.579Z,2632.00
2018-05-08T04:43:57.604Z,2656.00
2018-05-08T04:44:57.617Z,2684.00
2018-05-08T04:45:57.644Z,2704.00
2018-05-08T04:46:57.657Z,2728.00
2018-05-08T04:47:57.891Z,2752.00
2018-05-08T04:48:57.698Z,2776.00
2018-05-08T04:49:57.723Z,2796.00
2018-05-08T04:50:57.750Z,2816.00
2018-05-08T04:51:57.762Z,2848.00
2018-05-08T04:52:57.774Z,2880.00
2018-05-08T04:53:57.801Z,2928.00
2018-05-08T04:54:57.816Z,2964.00
2018-05-08T04:55:57.877Z,2940.00
2018-05-08T04:56:57.857Z,2952.00
2018-05-08T04:57:57.882Z,3040.00
2018-05-08T04:58:57.907Z,3024.00
2018-05-08T04:59:57.922Z,3088.00
2018-05-08T05:00:57.948Z,3076.00
2018-05-08T05:01:57.961Z,3076.00
2018-05-08T05:02:57.986Z,3092.00
2018-05-08T05:03:57.999Z,3120.00
2018-05-08T05:04:58.025Z,3144.00
2018-05-08T05:05:58.041Z,3172.00
2018-05-08T05:07:58.077Z,3220.00
2018-05-08T05:08:58.105Z,3236.00
2018-05-08T05:09:58.132Z,3264.00
2018-05-08T05:10:58.192Z,3292.00
2018-05-08T05:12:58.206Z,3336.00
2018-05-08T05:13:58.209Z,3360.00
2018-05-08T05:14:58.222Z,3384.00
2018-05-08T05:15:58.246Z,3396.00
2018-05-08T05:16:58.262Z,3416.00
2018-05-08T05:17:58.287Z,3440.00
2018-05-08T05:18:58.301Z,3460.00
2018-05-08T05:19:58.326Z,3492.00
2018-05-08T05:20:58.354Z,3512.00
2018-05-08T05:21:58.368Z,3540.00
2018-05-08T05:22:58.394Z,3580.00
2018-05-08T05:23:58.407Z,3596.00
2018-05-08T05:24:58.433Z,3604.00
2018-05-08T05:25:58.450Z,3624.00
2018-05-08T05:26:58.471Z,3648.00
2018-05-08T05:27:58.485Z,3676.00
2018-05-08T05:28:58.511Z,3704.00
2018-05-08T05:29:58.564Z,4012.00
2018-05-08T05:30:58.552Z,5248.00
2018-05-08T05:31:58.578Z,5516.00
2018-05-08T05:32:58.592Z,5060.00
2018-05-08T05:33:58.614Z,5452.00
2018-05-08T05:34:58.641Z,5860.00
2018-05-08T05:35:58.655Z,6664.00
2018-05-08T05:36:58.681Z,6992.00
2018-05-08T05:37:58.700Z,5696.00
2018-05-08T05:38:58.721Z,6616.00
2018-05-08T05:39:58.739Z,6380.00
2018-05-08T05:40:58.765Z,4584.00
2018-05-08T05:41:58.787Z,5596.00
2018-05-08T05:42:58.799Z,8828.00
2018-05-08T05:43:58.825Z,7576.00
2018-05-08T05:44:58.839Z,4472.00
2018-05-08T05:45:58.868Z,4076.00
2018-05-08T05:46:58.892Z,4084.00
2018-05-08T05:47:58.912Z,4324.00
2018-05-08T05:48:58.935Z,4648.00
2018-05-08T05:49:58.958Z,4876.00
2018-05-08T05:50:58.973Z,5048.00
2018-05-08T05:51:58.998Z,6060.00
2018-05-08T05:52:59.012Z,5420.00
2018-05-08T05:53:59.035Z,5976.00
2018-05-08T05:54:59.060Z,7256.00
2018-05-08T05:55:59.076Z,8420.00
2018-05-08T05:56:59.101Z,10868.00
2018-05-08T05:57:59.129Z,19136.00
2018-05-08T05:58:59.140Z,18368.00
2018-05-08T05:59:59.173Z,14996.00
2018-05-08T06:00:59.193Z,9260.00
2018-05-08T06:01:59.207Z,7768.00
2018-05-08T06:02:59.235Z,7416.00
2018-05-08T06:03:59.245Z,6488.00
2018-05-08T06:05:59.296Z,6292.00
2018-05-08T06:06:59.311Z,5208.00
2018-05-08T06:07:59.336Z,5100.00
2018-05-08T06:08:59.362Z,8020.00
2018-05-08T06:09:59.389Z,19488.00
2018-05-08T06:10:59.400Z,25696.00
2018-05-08T06:11:59.501Z,16896.00
2018-05-08T06:12:59.455Z,9756.00
2018-05-08T06:13:59.467Z,8868.00
2018-05-08T06:14:59.493Z,15716.00
2018-05-08T06:15:59.519Z,31552.00
2018-05-08T06:16:59.532Z,40000.00
2018-05-08T06:17:59.557Z,32960.00
2018-05-08T06:18:59.583Z,19328.00
2018-05-08T06:19:59.657Z,10788.00
2018-05-08T06:20:59.623Z,11396.00
2018-05-08T06:21:59.650Z,11112.00
2018-05-08T06:22:59.675Z,21696.00
2018-05-08T06:23:59.904Z,40448.00
2018-05-08T06:24:59.731Z,42368.00
2018-05-08T06:25:59.741Z,41280.00
2018-05-08T06:26:59.766Z,39296.00
2018-05-08T06:28:00.141Z,38624.00
2018-05-08T06:28:59.818Z,40736.00
2018-05-08T06:29:59.845Z,40160.00
2018-05-08T06:30:59.870Z,34752.00
2018-05-08T06:31:59.883Z,35456.00
2018-05-08T06:32:59.910Z,34144.00
2018-05-08T06:33:59.937Z,28928.00
2018-05-08T06:34:59.964Z,28128.00
2018-05-08T06:35:59.990Z,28096.00
2018-05-08T06:37:00.020Z,29024.00
2018-05-08T06:38:00.041Z,29568.00
2018-05-08T06:39:00.104Z,32192.00
2018-05-08T06:40:00.172Z,33600.00
2018-05-08T06:41:00.321Z,33920.00
2018-05-08T06:42:00.145Z,35168.00
2018-05-08T06:43:00.172Z,39424.00
2018-05-08T06:44:00.207Z,40416.00
2018-05-08T06:45:00.583Z,37120.00
2018-05-08T06:46:00.259Z,38816.00
2018-05-08T06:47:00.637Z,40704.00
2018-05-08T06:48:00.312Z,39328.00
2018-05-08T06:49:00.342Z,42624.00
2018-05-08T06:50:00.376Z,44992.00
2018-05-08T06:51:00.603Z,45088.00
2018-05-08T06:52:00.432Z,47904.00
2018-05-08T06:53:00.454Z,48096.00
2018-05-08T06:54:00.481Z,44992.00
2018-05-08T06:55:00.753Z,45312.00
2018-05-08T06:56:00.545Z,44768.00
2018-05-08T06:58:00.596Z,44448.00
2018-05-08T06:59:00.623Z,45312.00
2018-05-08T07:00:00.667Z,45376.00
2018-05-08T07:01:00.687Z,46944.00
2018-05-08T07:02:00.719Z,49888.00
2018-05-08T07:03:00.752Z,48832.00
2018-05-08T07:04:00.778Z,47584.00
2018-05-08T07:05:00.804Z,51840.00
2018-05-08T07:06:00.843Z,46464.00
2018-05-08T07:08:00.895Z,52000.00
2018-05-08T07:09:01.282Z,57376.00
2018-05-08T07:10:00.959Z,60320.00
2018-05-08T07:11:00.986Z,56800.00
2018-05-08T07:13:01.054Z,55264.00
2018-05-08T07:14:01.087Z,55456.00
2018-05-08T07:15:01.115Z,56448.00
2018-05-08T07:16:01.293Z,60384.00
2018-05-08T07:18:01.235Z,56384.00
2018-05-08T07:19:01.242Z,56352.00
2018-05-08T07:20:01.281Z,58880.00
2018-05-08T07:21:01.307Z,55072.00
2018-05-08T07:22:01.334Z,50592.00
2018-05-08T07:23:01.372Z,54944.00
2018-05-08T07:24:01.415Z,56736.00
2018-05-08T07:25:01.436Z,56640.00
2018-05-08T07:26:01.461Z,56992.00
2018-05-08T07:27:01.509Z,61344.00
2018-05-08T07:28:01.526Z,65408.00
2018-05-08T07:29:01.566Z,62592.00
2018-05-08T07:30:01.621Z,61920.00
2018-05-08T07:31:01.663Z,63904.00
2018-05-08T07:32:01.671Z,62752.00
2018-05-08T07:33:01.697Z,63872.00
2018-05-08T07:34:01.732Z,63072.00
2018-05-08T07:35:01.759Z,63808.00
2018-05-08T07:36:01.797Z,63392.00
2018-05-08T07:37:01.833Z,63232.00
2018-05-08T07:39:01.900Z,63392.00
2018-05-08T07:40:01.953Z,61568.00
2018-05-08T07:41:01.964Z,65600.00
2018-05-08T07:42:02.002Z,65600.00
2018-05-08T07:43:02.039Z,66784.00
2018-05-08T07:44:02.067Z,68928.00
2018-05-08T07:45:02.107Z,68544.00
2018-05-08T07:46:02.145Z,69984.00
2018-05-08T07:47:02.169Z,68416.00
2018-05-08T07:48:02.208Z,69440.00
2018-05-08T07:49:02.245Z,74784.00
2018-05-08T07:50:02.274Z,75264.00
2018-05-08T07:51:02.312Z,70688.00
2018-05-08T07:52:02.351Z,70336.00
2018-05-08T07:53:02.378Z,70144.00
2018-05-08T07:54:02.413Z,64096.00
2018-05-08T07:55:02.452Z,63520.00
2018-05-08T07:56:02.478Z,66880.00
2018-05-08T07:57:02.516Z,68576.00
2018-05-08T07:58:02.554Z,70368.00
2018-05-08T07:59:02.592Z,67200.00
2018-05-08T08:00:02.619Z,64000.00
2018-05-08T08:02:02.697Z,68768.00
2018-05-08T08:03:02.734Z,69472.00
2018-05-08T08:04:02.774Z,70432.00
2018-05-08T08:05:02.799Z,71104.00
2018-05-08T08:06:02.837Z,70752.00
2018-05-08T08:07:02.876Z,71904.00
2018-05-08T08:08:02.914Z,69216.00
2018-05-08T08:09:03.155Z,68608.00
2018-05-08T08:10:03.192Z,73696.00
2018-05-08T08:12:03.054Z,72576.00
2018-05-08T08:13:03.093Z,67488.00
2018-05-08T08:14:03.134Z,50432.00
2018-05-08T08:15:03.170Z,44800.00
2018-05-08T08:16:03.196Z,45536.00
2018-05-08T08:17:03.235Z,42720.00
2018-05-08T08:18:03.273Z,37888.00
2018-05-08T08:19:03.312Z,38240.00
2018-05-08T08:20:03.338Z,39328.00
2018-05-08T08:22:03.421Z,32608.00
2018-05-08T08:23:03.441Z,18208.00
2018-05-08T08:24:03.480Z,6424.00
2018-05-08T08:25:03.521Z,7728.00
2018-05-08T08:26:03.544Z,18272.00
2018-05-08T08:27:03.582Z,27008.00
2018-05-08T08:28:03.612Z,24928.00
2018-05-08T08:29:03.695Z,20864.00
2018-05-08T08:30:03.679Z,21280.00
2018-05-08T08:31:03.712Z,23488.00
2018-05-08T08:32:03.741Z,23936.00
2018-05-08T08:33:03.776Z,22400.00
2018-05-08T08:34:03.805Z,21472.00
2018-05-08T08:35:03.849Z,20640.00
2018-05-08T08:36:03.867Z,19392.00
2018-05-08T08:37:03.904Z,17888.00
2018-05-08T08:38:03.932Z,14904.00
2018-05-08T08:39:03.960Z,12652.00
2018-05-08T08:40:03.994Z,9252.00
2018-05-08T08:41:04.021Z,6704.00
2018-05-08T08:42:04.046Z,8100.00
2018-05-08T08:43:04.095Z,12912.00
2018-05-08T08:44:04.112Z,13500.00
2018-05-08T08:45:04.341Z,13424.00
2018-05-08T08:46:04.175Z,13600.00
2018-05-08T08:47:04.202Z,13996.00
2018-05-08T08:48:04.228Z,14784.00
2018-05-08T08:49:04.255Z,15768.00
2018-05-08T08:50:04.293Z,16716.00
2018-05-08T08:51:04.318Z,16664.00
2018-05-08T08:52:04.345Z,16128.00
2018-05-08T08:53:04.372Z,16396.00
2018-05-08T08:54:04.410Z,16716.00
2018-05-08T08:55:04.435Z,18304.00
2018-05-08T08:57:04.487Z,20032.00
2018-05-08T08:58:04.876Z,21696.00
2018-05-08T08:59:04.552Z,21376.00
2018-05-08T09:00:04.578Z,19584.00
2018-05-08T09:01:04.605Z,21472.00
2018-05-08T09:02:04.642Z,24736.00
2018-05-08T09:03:04.668Z,26944.00
2018-05-08T09:04:04.701Z,28608.00
2018-05-08T09:06:04.746Z,32608.00
2018-05-08T09:07:04.833Z,34144.00
2018-05-08T09:08:04.811Z,36864.00
2018-05-08T09:09:04.836Z,34880.00
2018-05-08T09:10:04.862Z,33408.00
2018-05-08T09:11:04.889Z,35520.00
2018-05-08T09:12:04.940Z,41600.00
2018-05-08T09:13:04.952Z,44064.00
2018-05-08T09:14:04.982Z,44640.00
2018-05-08T09:15:05.005Z,50208.00
2018-05-08T09:16:05.032Z,54656.00
2018-05-08T09:17:05.070Z,54880.00
2018-05-08T09:18:05.297Z,57536.00
2018-05-08T09:19:05.122Z,62464.00
2018-05-08T09:20:05.147Z,53536.00
2018-05-08T09:21:05.187Z,23456.00
2018-05-08T09:22:05.211Z,10764.00
2018-05-08T09:25:05.305Z,76128.00
2018-05-08T09:26:05.334Z,79200.00
2018-05-08T09:28:05.380Z,84288.00
2018-05-08T09:29:05.418Z,85952.00
2018-05-08T09:30:05.445Z,85696.00
2018-05-08T09:31:05.480Z,87616.00
2018-05-08T09:32:05.496Z,92448.00
2018-05-08T09:33:05.535Z,92608.00
2018-05-08T09:34:05.561Z,91904.00
2018-05-08T09:35:05.592Z,92736.00
2018-05-08T09:36:05.624Z,94912.00
2018-05-08T09:37:05.651Z,92096.00
2018-05-08T09:38:05.677Z,88096.00
2018-05-08T09:39:05.718Z,86816.00
2018-05-08T09:40:05.746Z,88224.00
2018-05-08T09:41:05.768Z,89376.00
2018-05-08T09:42:05.853Z,87648.00
2018-05-08T09:43:05.831Z,88352.00
2018-05-08T09:44:06.208Z,82656.00
2018-05-08T09:46:05.922Z,44896.00
2018-05-08T09:47:05.960Z,29696.00
2018-05-08T09:48:05.986Z,55808.00
2018-05-08T09:49:06.310Z,89344.00
2018-05-08T09:50:06.254Z,95936.00
2018-05-08T09:51:06.092Z,84832.00
2018-05-08T09:52:06.115Z,61792.00
2018-05-08T09:53:06.156Z,34624.00
2018-05-08T09:54:06.264Z,32832.00
2018-05-08T09:55:06.434Z,65600.00
2018-05-08T09:56:06.595Z,92608.00
2018-05-08T09:57:06.486Z,93536.00
2018-05-08T09:58:06.320Z,73056.00
2018-05-08T10:00:06.390Z,13540.00
2018-05-08T10:02:06.501Z,35808.00
2018-05-08T10:03:06.489Z,65376.00
2018-05-08T10:04:06.515Z,77152.00
2018-05-08T10:05:06.758Z,78176.00
2018-05-08T10:06:06.591Z,86208.00
2018-05-08T10:07:06.631Z,89568.00
2018-05-08T10:08:06.659Z,90688.00
2018-05-08T10:09:06.695Z,90912.00
2018-05-08T10:10:06.734Z,92576.00
2018-05-08T10:11:06.776Z,93312.00
2018-05-08T10:12:06.798Z,85952.00
2018-05-08T10:14:06.875Z,75712.00
2018-05-08T10:15:06.912Z,83584.00
2018-05-08T10:16:06.951Z,88256.00
2018-05-08T10:17:06.999Z,90016.00
2018-05-08T10:18:07.037Z,87552.00
2018-05-08T10:19:07.269Z,90464.00
2018-05-08T10:20:07.105Z,95584.00
2018-05-08T10:21:07.142Z,95808.00
2018-05-08T10:22:07.385Z,96096.00
2018-05-08T10:23:07.221Z,95552.00
2018-05-08T10:24:07.463Z,94048.00
2018-05-08T10:25:07.296Z,95616.00
2018-05-08T10:26:07.539Z,93632.00
2018-05-08T10:27:07.375Z,91488.00
2018-05-08T10:28:07.471Z,92128.00
2018-05-08T10:29:07.464Z,93632.00
2018-05-08T10:30:07.514Z,92672.00
2018-05-08T10:31:07.541Z,92576.00
2018-05-08T10:32:07.578Z,89984.00
2018-05-08T10:33:07.696Z,86752.00
2018-05-08T10:34:07.671Z,86720.00
2018-05-08T10:35:07.706Z,90816.00
2018-05-08T10:36:07.792Z,95584.00
2018-05-08T10:37:07.783Z,97376.00
2018-05-08T10:38:07.822Z,93952.00
2018-05-08T10:39:07.862Z,86016.00
2018-05-08T10:40:07.911Z,81280.00
2018-05-08T10:41:08.157Z,82176.00
2018-05-08T10:44:08.078Z,82112.00
2018-05-08T10:45:08.117Z,83136.00
2018-05-08T10:46:08.155Z,84640.00
2018-05-08T10:47:08.192Z,84544.00
2018-05-08T10:48:08.232Z,83552.00
2018-05-08T10:49:08.282Z,83968.00
2018-05-08T10:50:08.334Z,87264.00
2018-05-08T10:51:08.563Z,92800.00
2018-05-08T10:52:08.403Z,94784.00
2018-05-08T10:53:08.449Z,95776.00
2018-05-08T10:54:08.487Z,93088.00
2018-05-08T10:55:08.526Z,90944.00
2018-05-08T10:56:08.586Z,93536.00
2018-05-08T10:57:08.615Z,97568.00
2018-05-08T10:58:08.655Z,98624.00
2018-05-08T10:59:08.897Z,94848.00
2018-05-08T11:00:08.744Z,91936.00
2018-05-08T11:01:08.782Z,88992.00
2018-05-08T11:02:08.821Z,89216.00
2018-05-08T11:03:08.871Z,96320.00
2018-05-08T11:04:08.910Z,97792.00
2018-05-08T11:05:08.948Z,99712.00
2018-05-08T11:06:09.349Z,95040.00
2018-05-08T11:07:09.054Z,89824.00
2018-05-08T11:08:09.076Z,90848.00
2018-05-08T11:09:09.117Z,91936.00
2018-05-08T11:10:09.166Z,90720.00
2018-05-08T11:11:09.206Z,87104.00
2018-05-08T11:13:09.643Z,89440.00
2018-05-08T11:14:09.332Z,90464.00
2018-05-08T11:15:09.573Z,91456.00
2018-05-08T11:16:09.423Z,89856.00
2018-05-08T11:17:09.460Z,91008.00
2018-05-08T11:18:09.498Z,89856.00
2018-05-08T11:19:09.561Z,88736.00
2018-05-08T11:20:09.588Z,88640.00
2018-05-08T11:21:09.639Z,88224.00
2018-05-08T11:22:09.677Z,88064.00
2018-05-08T11:23:09.720Z,89504.00
2018-05-08T11:24:09.753Z,89504.00
2018-05-08T11:25:09.804Z,88960.00
2018-05-08T11:26:09.844Z,87008.00
2018-05-08T11:27:09.883Z,85088.00
2018-05-08T11:28:09.934Z,83424.00
2018-05-08T11:29:09.972Z,90240.00
2018-05-08T11:30:10.023Z,91488.00
2018-05-08T11:31:10.060Z,90016.00
2018-05-08T11:32:10.099Z,89408.00
2018-05-08T11:33:10.150Z,85824.00
2018-05-08T11:34:10.188Z,81376.00
2018-05-08T11:36:10.483Z,77792.00
2018-05-08T11:37:10.316Z,79104.00
2018-05-08T11:38:10.367Z,81120.00
2018-05-08T11:39:10.446Z,82976.00
2018-05-08T11:40:10.444Z,82784.00
2018-05-08T11:41:10.496Z,83136.00
2018-05-08T11:42:10.736Z,83072.00
2018-05-08T11:43:10.584Z,80416.00
2018-05-08T11:44:10.622Z,71264.00
2018-05-08T11:45:10.662Z,66048.00
2018-05-08T11:48:10.815Z,80704.00
2018-05-08T11:49:10.843Z,82784.00
2018-05-08T11:51:10.930Z,81760.00
2018-05-08T11:52:10.969Z,78688.00
2018-05-08T11:53:11.007Z,75040.00
2018-05-08T11:54:11.058Z,73728.00
2018-05-08T11:55:11.097Z,76256.00
2018-05-08T11:56:11.148Z,79168.00
2018-05-08T11:57:11.186Z,79456.00
2018-05-08T11:58:11.224Z,78656.00
2018-05-08T11:59:11.281Z,76224.00
2018-05-08T12:00:11.313Z,77920.00
2018-05-08T12:01:11.352Z,80896.00
2018-05-08T12:02:11.404Z,82816.00
2018-05-08T12:03:11.443Z,83040.00
2018-05-08T12:04:11.511Z,82624.00
2018-05-08T12:05:11.531Z,82912.00
2018-05-08T12:07:11.619Z,84096.00
2018-05-08T12:08:11.658Z,85888.00
2018-05-08T12:09:11.727Z,83936.00
2018-05-08T12:10:11.747Z,85760.00
2018-05-08T12:11:11.801Z,90656.00
2018-05-08T12:13:11.882Z,84512.00
2018-05-08T12:14:11.914Z,83552.00
2018-05-08T12:15:11.953Z,85824.00
2018-05-08T12:16:12.005Z,85856.00
2018-05-08T12:17:12.043Z,81376.00
2018-05-08T12:18:12.094Z,79104.00
2018-05-08T12:19:12.121Z,80128.00
2018-05-08T12:20:12.171Z,81952.00
2018-05-08T12:21:12.208Z,84832.00
2018-05-08T12:22:12.247Z,82912.00
2018-05-08T12:23:12.298Z,81440.00
2018-05-08T12:24:12.338Z,83136.00
2018-05-08T12:25:12.387Z,84832.00
2018-05-08T12:26:12.776Z,85440.00
2018-05-08T12:27:12.464Z,86176.00
2018-05-08T12:28:12.504Z,87296.00
2018-05-08T12:30:12.591Z,84096.00
2018-05-08T12:31:12.678Z,82496.00
2018-05-08T12:32:12.682Z,83776.00
2018-05-08T12:33:12.708Z,86144.00
2018-05-08T12:34:12.760Z,88928.00
2018-05-08T12:35:12.802Z,87744.00
2018-05-08T12:36:12.887Z,88064.00
2018-05-08T12:37:12.887Z,87008.00
2018-05-08T12:38:12.926Z,84768.00
2018-05-08T12:39:12.964Z,82400.00
2018-05-08T12:40:13.014Z,84544.00
2018-05-08T12:41:13.052Z,89056.00
2018-05-08T12:42:13.152Z,90304.00
2018-05-08T12:43:13.129Z,87648.00
2018-05-08T12:44:13.168Z,85248.00
2018-05-08T12:45:13.220Z,85440.00
2018-05-08T12:46:13.270Z,82208.00
2018-05-08T12:47:13.296Z,80640.00
2018-05-08T12:48:13.334Z,80608.00
2018-05-08T12:49:13.385Z,80032.00
2018-05-08T12:50:13.426Z,80448.00
2018-05-08T12:51:13.462Z,82176.00